sensor_id;sensor_type;location;lat;lon;timestamp;P1;durP1;ratioP1;P2;durP2;ratioP2
41333;SDS011;27078;46.428;6.256;2023-04-03T00:00:52;1.30;;;0.70;;
41333;SDS011;27078;46.428;6.256;2023-04-03T00:03:18;2.55;;;0.65;;
41333;SDS011;27078;46.428;6.256;2023-04-03T00:05:44;2.15;;;0.80;;
41333;SDS011;27078;46.428;6.256;2023-04-03T00:08:10;1.30;;;0.80;;
41333;SDS011;27078;46.428;6.256;2023-04-03T00:10:36;1.00;;;0.70;;
41333;SDS011;27078;46.428;6.256;2023-04-03T00:13:02;1.95;;;0.70;;
41333;SDS011;27078;46.428;6.256;2023-04-03T00:15:29;1.38;;;0.70;;
41333;SDS011;27078;46.428;6.256;2023-04-03T00:17:55;2.03;;;0.70;;
41333;SDS011;27078;46.428;6.256;2023-04-03T00:20:20;3.03;;;0.65;;
41333;SDS011;27078;46.428;6.256;2023-04-03T00:22:46;1.15;;;0.50;;
41333;SDS011;27078;46.428;6.256;2023-04-03T00:25:11;1.65;;;0.57;;
41333;SDS011;27078;46.428;6.256;2023-04-03T00:27:37;1.10;;;0.60;;
41333;SDS011;27078;46.428;6.256;2023-04-03T00:30:04;2.13;;;1.08;;
41333;SDS011;27078;46.428;6.256;2023-04-03T00:32:31;1.63;;;0.70;;
41333;SDS011;27078;46.428;6.256;2023-04-03T00:34:57;1.15;;;0.73;;
41333;SDS011;27078;46.428;6.256;2023-04-03T00:37:22;1.52;;;0.90;;
41333;SDS011;27078;46.428;6.256;2023-04-03T00:39:48;2.97;;;0.70;;
41333;SDS011;27078;46.428;6.256;2023-04-03T00:42:13;1.25;;;0.73;;
41333;SDS011;27078;46.428;6.256;2023-04-03T00:47:05;2.20;;;1.05;;
41333;SDS011;27078;46.428;6.256;2023-04-03T00:49:33;1.63;;;1.20;;
41333;SDS011;27078;46.428;6.256;2023-04-03T00:51:59;1.77;;;1.00;;
41333;SDS011;27078;46.428;6.256;2023-04-03T00:54:25;2.28;;;1.38;;
41333;SDS011;27078;46.428;6.256;2023-04-03T00:56:51;2.60;;;1.42;;
41333;SDS011;27078;46.428;6.256;2023-04-03T00:59:21;2.67;;;1.30;;
41333;SDS011;27078;46.428;6.256;2023-04-03T01:01:52;3.90;;;2.20;;
41333;SDS011;27078;46.428;6.256;2023-04-03T01:04:29;3.42;;;1.83;;
41333;SDS011;27078;46.428;6.256;2023-04-03T01:06:59;3.00;;;1.60;;
41333;SDS011;27078;46.428;6.256;2023-04-03T01:09:27;4.07;;;1.60;;
41333;SDS011;27078;46.428;6.256;2023-04-03T01:11:54;2.88;;;1.25;;
41333;SDS011;27078;46.428;6.256;2023-04-03T01:14:19;1.55;;;1.00;;
41333;SDS011;27078;46.428;6.256;2023-04-03T01:16:54;3.00;;;1.30;;
41333;SDS011;27078;46.428;6.256;2023-04-03T01:19:19;2.88;;;1.27;;
41333;SDS011;27078;46.428;6.256;2023-04-03T01:24:32;1.95;;;1.10;;
41333;SDS011;27078;46.428;6.256;2023-04-03T01:27:00;2.17;;;1.17;;
41333;SDS011;27078;46.428;6.256;2023-04-03T01:29:27;2.15;;;1.30;;
41333;SDS011;27078;46.428;6.256;2023-04-03T01:31:54;2.38;;;1.30;;
41333;SDS011;27078;46.428;6.256;2023-04-03T01:34:21;3.50;;;1.42;;
41333;SDS011;27078;46.428;6.256;2023-04-03T01:36:47;2.30;;;1.25;;
41333;SDS011;27078;46.428;6.256;2023-04-03T01:39:12;3.53;;;1.30;;
41333;SDS011;27078;46.428;6.256;2023-04-03T01:41:38;2.60;;;1.30;;
41333;SDS011;27078;46.428;6.256;2023-04-03T01:44:03;3.88;;;1.45;;
41333;SDS011;27078;46.428;6.256;2023-04-03T01:46:29;2.95;;;1.50;;
41333;SDS011;27078;46.428;6.256;2023-04-03T01:48:54;2.25;;;1.50;;
41333;SDS011;27078;46.428;6.256;2023-04-03T01:51:20;3.95;;;1.40;;
41333;SDS011;27078;46.428;6.256;2023-04-03T01:53:45;3.67;;;1.17;;
41333;SDS011;27078;46.428;6.256;2023-04-03T01:56:10;2.38;;;1.25;;
41333;SDS011;27078;46.428;6.256;2023-04-03T01:58:36;2.95;;;1.50;;
41333;SDS011;27078;46.428;6.256;2023-04-03T02:01:01;2.63;;;1.13;;
41333;SDS011;27078;46.428;6.256;2023-04-03T02:03:27;1.83;;;1.30;;
41333;SDS011;27078;46.428;6.256;2023-04-03T02:05:52;3.55;;;1.33;;
41333;SDS011;27078;46.428;6.256;2023-04-03T02:08:18;2.80;;;1.50;;
41333;SDS011;27078;46.428;6.256;2023-04-03T02:10:44;1.73;;;1.40;;
41333;SDS011;27078;46.428;6.256;2023-04-03T02:13:12;2.33;;;1.50;;
41333;SDS011;27078;46.428;6.256;2023-04-03T02:15:38;3.13;;;1.17;;
41333;SDS011;27078;46.428;6.256;2023-04-03T02:18:04;2.90;;;1.38;;
41333;SDS011;27078;46.428;6.256;2023-04-03T02:20:30;2.30;;;1.15;;
41333;SDS011;27078;46.428;6.256;2023-04-03T02:22:55;1.85;;;1.10;;
41333;SDS011;27078;46.428;6.256;2023-04-03T02:25:20;1.98;;;1.30;;
41333;SDS011;27078;46.428;6.256;2023-04-03T02:27:46;3.25;;;1.42;;
41333;SDS011;27078;46.428;6.256;2023-04-03T02:30:12;2.97;;;1.65;;
41333;SDS011;27078;46.428;6.256;2023-04-03T02:32:39;3.58;;;1.50;;
41333;SDS011;27078;46.428;6.256;2023-04-03T02:35:05;3.22;;;1.25;;
41333;SDS011;27078;46.428;6.256;2023-04-03T02:37:31;2.30;;;1.50;;
41333;SDS011;27078;46.428;6.256;2023-04-03T02:39:56;2.33;;;1.60;;
41333;SDS011;27078;46.428;6.256;2023-04-03T02:42:22;2.67;;;1.65;;
41333;SDS011;27078;46.428;6.256;2023-04-03T02:44:47;1.98;;;1.55;;
41333;SDS011;27078;46.428;6.256;2023-04-03T02:47:12;2.80;;;1.58;;
41333;SDS011;27078;46.428;6.256;2023-04-03T02:49:38;2.25;;;1.30;;
41333;SDS011;27078;46.428;6.256;2023-04-03T02:52:03;2.15;;;1.30;;
41333;SDS011;27078;46.428;6.256;2023-04-03T02:54:29;1.83;;;1.13;;
41333;SDS011;27078;46.428;6.256;2023-04-03T02:56:55;1.73;;;1.20;;
41333;SDS011;27078;46.428;6.256;2023-04-03T02:59:22;1.60;;;0.80;;
41333;SDS011;27078;46.428;6.256;2023-04-03T03:01:47;1.67;;;1.10;;
41333;SDS011;27078;46.428;6.256;2023-04-03T03:04:12;1.27;;;0.82;;
41333;SDS011;27078;46.428;6.256;2023-04-03T03:06:38;1.17;;;0.90;;
41333;SDS011;27078;46.428;6.256;2023-04-03T03:09:03;1.65;;;1.10;;
41333;SDS011;27078;46.428;6.256;2023-04-03T03:11:30;1.13;;;0.80;;
41333;SDS011;27078;46.428;6.256;2023-04-03T03:13:56;1.70;;;1.00;;
41333;SDS011;27078;46.428;6.256;2023-04-03T03:16:21;1.05;;;0.70;;
41333;SDS011;27078;46.428;6.256;2023-04-03T03:18:47;3.47;;;1.17;;
41333;SDS011;27078;46.428;6.256;2023-04-03T03:21:12;1.77;;;1.05;;
41333;SDS011;27078;46.428;6.256;2023-04-03T03:23:38;1.35;;;1.10;;
41333;SDS011;27078;46.428;6.256;2023-04-03T03:26:04;2.05;;;1.30;;
41333;SDS011;27078;46.428;6.256;2023-04-03T03:28:31;1.30;;;1.10;;
41333;SDS011;27078;46.428;6.256;2023-04-03T03:30:58;1.30;;;1.10;;
41333;SDS011;27078;46.428;6.256;2023-04-03T03:33:24;1.10;;;0.80;;
41333;SDS011;27078;46.428;6.256;2023-04-03T03:35:51;1.42;;;0.80;;
41333;SDS011;27078;46.428;6.256;2023-04-03T03:38:17;0.65;;;0.50;;
41333;SDS011;27078;46.428;6.256;2023-04-03T03:40:43;1.05;;;0.60;;
41333;SDS011;27078;46.428;6.256;2023-04-03T03:43:08;1.15;;;0.50;;
41333;SDS011;27078;46.428;6.256;2023-04-03T03:45:34;0.80;;;0.52;;
41333;SDS011;27078;46.428;6.256;2023-04-03T03:48:00;0.63;;;0.55;;
41333;SDS011;27078;46.428;6.256;2023-04-03T03:50:25;1.00;;;0.70;;
41333;SDS011;27078;46.428;6.256;2023-04-03T03:52:51;0.90;;;0.70;;
41333;SDS011;27078;46.428;6.256;2023-04-03T03:55:16;1.13;;;0.70;;
41333;SDS011;27078;46.428;6.256;2023-04-03T03:57:42;1.02;;;0.80;;
41333;SDS011;27078;46.428;6.256;2023-04-03T04:00:08;0.85;;;0.70;;
41333;SDS011;27078;46.428;6.256;2023-04-03T04:02:33;1.00;;;0.80;;
41333;SDS011;27078;46.428;6.256;2023-04-03T04:04:59;0.77;;;0.60;;
41333;SDS011;27078;46.428;6.256;2023-04-03T04:07:24;0.93;;;0.70;;
41333;SDS011;27078;46.428;6.256;2023-04-03T04:09:53;1.00;;;0.70;;
41333;SDS011;27078;46.428;6.256;2023-04-03T04:12:18;1.45;;;0.90;;
41333;SDS011;27078;46.428;6.256;2023-04-03T04:14:43;0.88;;;0.60;;
41333;SDS011;27078;46.428;6.256;2023-04-03T04:17:11;1.08;;;0.60;;
41333;SDS011;27078;46.428;6.256;2023-04-03T04:19:40;0.70;;;0.45;;
41333;SDS011;27078;46.428;6.256;2023-04-03T04:22:05;1.00;;;0.50;;
41333;SDS011;27078;46.428;6.256;2023-04-03T04:24:30;0.73;;;0.60;;
41333;SDS011;27078;46.428;6.256;2023-04-03T04:26:56;0.93;;;0.60;;
41333;SDS011;27078;46.428;6.256;2023-04-03T04:29:21;0.65;;;0.50;;
41333;SDS011;27078;46.428;6.256;2023-04-03T04:31:46;1.10;;;0.50;;
41333;SDS011;27078;46.428;6.256;2023-04-03T04:34:12;0.75;;;0.60;;
41333;SDS011;27078;46.428;6.256;2023-04-03T04:36:38;1.17;;;0.60;;
41333;SDS011;27078;46.428;6.256;2023-04-03T04:39:04;1.10;;;0.80;;
41333;SDS011;27078;46.428;6.256;2023-04-03T04:41:30;1.13;;;0.70;;
41333;SDS011;27078;46.428;6.256;2023-04-03T04:43:55;1.08;;;0.80;;
41333;SDS011;27078;46.428;6.256;2023-04-03T04:46:21;1.00;;;0.68;;
41333;SDS011;27078;46.428;6.256;2023-04-03T04:48:47;1.10;;;0.77;;
41333;SDS011;27078;46.428;6.256;2023-04-03T04:51:13;1.02;;;0.70;;
41333;SDS011;27078;46.428;6.256;2023-04-03T04:53:38;1.10;;;0.60;;
41333;SDS011;27078;46.428;6.256;2023-04-03T04:56:04;1.05;;;0.88;;
41333;SDS011;27078;46.428;6.256;2023-04-03T04:58:30;1.30;;;0.80;;
41333;SDS011;27078;46.428;6.256;2023-04-03T05:01:02;1.00;;;0.80;;
41333;SDS011;27078;46.428;6.256;2023-04-03T05:03:28;0.80;;;0.60;;
41333;SDS011;27078;46.428;6.256;2023-04-03T05:05:54;0.80;;;0.55;;
41333;SDS011;27078;46.428;6.256;2023-04-03T05:08:20;0.98;;;0.57;;
41333;SDS011;27078;46.428;6.256;2023-04-03T05:10:46;0.75;;;0.50;;
41333;SDS011;27078;46.428;6.256;2023-04-03T05:13:12;0.80;;;0.50;;
41333;SDS011;27078;46.428;6.256;2023-04-03T05:15:38;1.40;;;0.60;;
41333;SDS011;27078;46.428;6.256;2023-04-03T05:18:03;2.10;;;0.60;;
41333;SDS011;27078;46.428;6.256;2023-04-03T05:20:29;1.40;;;1.00;;
41333;SDS011;27078;46.428;6.256;2023-04-03T05:22:55;2.30;;;1.20;;
41333;SDS011;27078;46.428;6.256;2023-04-03T05:25:20;1.73;;;1.20;;
41333;SDS011;27078;46.428;6.256;2023-04-03T05:27:46;2.38;;;1.23;;
41333;SDS011;27078;46.428;6.256;2023-04-03T05:30:11;1.90;;;1.30;;
41333;SDS011;27078;46.428;6.256;2023-04-03T05:32:37;2.50;;;1.30;;
41333;SDS011;27078;46.428;6.256;2023-04-03T05:35:02;2.28;;;1.40;;
41333;SDS011;27078;46.428;6.256;2023-04-03T05:37:28;2.30;;;1.40;;
41333;SDS011;27078;46.428;6.256;2023-04-03T05:39:53;2.10;;;1.42;;
41333;SDS011;27078;46.428;6.256;2023-04-03T05:42:19;1.73;;;1.23;;
41333;SDS011;27078;46.428;6.256;2023-04-03T05:44:44;2.53;;;1.00;;
41333;SDS011;27078;46.428;6.256;2023-04-03T05:47:12;2.10;;;1.20;;
41333;SDS011;27078;46.428;6.256;2023-04-03T05:49:37;1.95;;;1.10;;
41333;SDS011;27078;46.428;6.256;2023-04-03T05:52:05;2.03;;;1.00;;
41333;SDS011;27078;46.428;6.256;2023-04-03T05:54:36;1.70;;;1.23;;
41333;SDS011;27078;46.428;6.256;2023-04-03T05:57:02;1.48;;;0.90;;
41333;SDS011;27078;46.428;6.256;2023-04-03T05:59:27;2.20;;;0.98;;
41333;SDS011;27078;46.428;6.256;2023-04-03T06:01:52;1.40;;;0.73;;
41333;SDS011;27078;46.428;6.256;2023-04-03T06:04:18;1.20;;;0.70;;
41333;SDS011;27078;46.428;6.256;2023-04-03T06:09:14;1.40;;;0.80;;
41333;SDS011;27078;46.428;6.256;2023-04-03T06:11:41;1.42;;;0.88;;
41333;SDS011;27078;46.428;6.256;2023-04-03T06:14:06;1.15;;;0.68;;
41333;SDS011;27078;46.428;6.256;2023-04-03T06:16:33;2.00;;;0.70;;
41333;SDS011;27078;46.428;6.256;2023-04-03T06:18:59;1.55;;;0.85;;
41333;SDS011;27078;46.428;6.256;2023-04-03T06:21:24;1.40;;;0.90;;
41333;SDS011;27078;46.428;6.256;2023-04-03T06:23:49;1.75;;;0.98;;
41333;SDS011;27078;46.428;6.256;2023-04-03T06:26:16;1.92;;;1.38;;
41333;SDS011;27078;46.428;6.256;2023-04-03T06:28:42;2.13;;;1.52;;
41333;SDS011;27078;46.428;6.256;2023-04-03T06:31:07;2.97;;;1.67;;
41333;SDS011;27078;46.428;6.256;2023-04-03T06:33:33;3.72;;;1.73;;
41333;SDS011;27078;46.428;6.256;2023-04-03T06:35:59;2.35;;;1.65;;
41333;SDS011;27078;46.428;6.256;2023-04-03T06:38:28;2.55;;;1.88;;
41333;SDS011;27078;46.428;6.256;2023-04-03T06:40:53;3.13;;;1.90;;
41333;SDS011;27078;46.428;6.256;2023-04-03T06:43:19;5.32;;;2.22;;
41333;SDS011;27078;46.428;6.256;2023-04-03T06:45:45;2.75;;;1.77;;
41333;SDS011;27078;46.428;6.256;2023-04-03T06:48:11;2.35;;;1.75;;
41333;SDS011;27078;46.428;6.256;2023-04-03T06:50:37;2.72;;;1.27;;
41333;SDS011;27078;46.428;6.256;2023-04-03T06:53:03;2.58;;;1.40;;
41333;SDS011;27078;46.428;6.256;2023-04-03T06:55:28;2.40;;;1.50;;
41333;SDS011;27078;46.428;6.256;2023-04-03T06:57:54;4.65;;;1.40;;
41333;SDS011;27078;46.428;6.256;2023-04-03T07:00:20;1.38;;;1.00;;
41333;SDS011;27078;46.428;6.256;2023-04-03T07:02:46;1.95;;;1.20;;
41333;SDS011;27078;46.428;6.256;2023-04-03T07:05:12;2.15;;;1.35;;
41333;SDS011;27078;46.428;6.256;2023-04-03T07:07:38;1.60;;;1.08;;
41333;SDS011;27078;46.428;6.256;2023-04-03T07:10:04;2.17;;;1.17;;
41333;SDS011;27078;46.428;6.256;2023-04-03T07:12:31;4.25;;;1.23;;
41333;SDS011;27078;46.428;6.256;2023-04-03T07:14:56;1.80;;;1.23;;
41333;SDS011;27078;46.428;6.256;2023-04-03T07:17:22;2.72;;;1.50;;
41333;SDS011;27078;46.428;6.256;2023-04-03T07:19:47;2.53;;;1.30;;
41333;SDS011;27078;46.428;6.256;2023-04-03T07:22:13;3.20;;;1.65;;
41333;SDS011;27078;46.428;6.256;2023-04-03T07:24:38;3.88;;;1.50;;
41333;SDS011;27078;46.428;6.256;2023-04-03T07:27:04;3.25;;;1.50;;
41333;SDS011;27078;46.428;6.256;2023-04-03T07:29:29;3.10;;;1.63;;
41333;SDS011;27078;46.428;6.256;2023-04-03T07:31:55;3.17;;;1.52;;
41333;SDS011;27078;46.428;6.256;2023-04-03T07:34:21;2.10;;;1.50;;
41333;SDS011;27078;46.428;6.256;2023-04-03T07:36:46;2.53;;;1.60;;
41333;SDS011;27078;46.428;6.256;2023-04-03T07:39:11;2.33;;;1.58;;
41333;SDS011;27078;46.428;6.256;2023-04-03T07:41:37;1.95;;;1.50;;
41333;SDS011;27078;46.428;6.256;2023-04-03T07:44:03;2.38;;;1.50;;
41333;SDS011;27078;46.428;6.256;2023-04-03T07:46:30;3.33;;;1.63;;
41333;SDS011;27078;46.428;6.256;2023-04-03T07:48:56;2.60;;;1.60;;
41333;SDS011;27078;46.428;6.256;2023-04-03T07:51:21;2.35;;;1.63;;
41333;SDS011;27078;46.428;6.256;2023-04-03T07:53:47;3.17;;;2.00;;
41333;SDS011;27078;46.428;6.256;2023-04-03T07:56:13;4.22;;;2.00;;
41333;SDS011;27078;46.428;6.256;2023-04-03T07:58:39;4.10;;;2.20;;
41333;SDS011;27078;46.428;6.256;2023-04-03T08:01:05;2.97;;;2.00;;
41333;SDS011;27078;46.428;6.256;2023-04-03T08:03:31;3.13;;;2.13;;
41333;SDS011;27078;46.428;6.256;2023-04-03T08:06:00;3.15;;;2.00;;
41333;SDS011;27078;46.428;6.256;2023-04-03T08:08:28;2.85;;;2.00;;
41333;SDS011;27078;46.428;6.256;2023-04-03T08:10:58;3.35;;;2.20;;
41333;SDS011;27078;46.428;6.256;2023-04-03T08:13:25;3.15;;;2.25;;
41333;SDS011;27078;46.428;6.256;2023-04-03T08:15:50;2.50;;;2.00;;
41333;SDS011;27078;46.428;6.256;2023-04-03T08:18:16;2.40;;;1.83;;
41333;SDS011;27078;46.428;6.256;2023-04-03T08:20:43;2.67;;;2.03;;
41333;SDS011;27078;46.428;6.256;2023-04-03T08:23:09;2.83;;;1.80;;
41333;SDS011;27078;46.428;6.256;2023-04-03T08:25:38;2.50;;;1.80;;
41333;SDS011;27078;46.428;6.256;2023-04-03T08:28:05;2.67;;;2.08;;
41333;SDS011;27078;46.428;6.256;2023-04-03T08:30:30;2.80;;;1.90;;
41333;SDS011;27078;46.428;6.256;2023-04-03T08:32:56;4.50;;;2.33;;
41333;SDS011;27078;46.428;6.256;2023-04-03T08:35:21;4.88;;;2.70;;
41333;SDS011;27078;46.428;6.256;2023-04-03T08:37:46;3.58;;;2.40;;
41333;SDS011;27078;46.428;6.256;2023-04-03T08:40:13;2.85;;;2.20;;
41333;SDS011;27078;46.428;6.256;2023-04-03T08:45:33;2.30;;;1.88;;
41333;SDS011;27078;46.428;6.256;2023-04-03T08:48:06;1.73;;;1.60;;
41333;SDS011;27078;46.428;6.256;2023-04-03T08:50:37;1.58;;;1.33;;
41333;SDS011;27078;46.428;6.256;2023-04-03T08:53:10;1.77;;;1.30;;
41333;SDS011;27078;46.428;6.256;2023-04-03T08:55:43;2.83;;;1.75;;
41333;SDS011;27078;46.428;6.256;2023-04-03T09:03:15;2.45;;;1.80;;
41333;SDS011;27078;46.428;6.256;2023-04-03T09:08:30;2.50;;;2.10;;
41333;SDS011;27078;46.428;6.256;2023-04-03T09:11:09;2.50;;;1.70;;
41333;SDS011;27078;46.428;6.256;2023-04-03T09:16:25;2.03;;;1.60;;
41333;SDS011;27078;46.428;6.256;2023-04-03T09:19:02;2.40;;;1.83;;
41333;SDS011;27078;46.428;6.256;2023-04-03T09:21:40;2.10;;;1.73;;
41333;SDS011;27078;46.428;6.256;2023-04-03T09:24:07;3.55;;;2.17;;
41333;SDS011;27078;46.428;6.256;2023-04-03T09:29:19;2.60;;;1.98;;
41333;SDS011;27078;46.428;6.256;2023-04-03T09:31:48;2.72;;;2.00;;
41333;SDS011;27078;46.428;6.256;2023-04-03T09:37:01;2.72;;;2.20;;
41333;SDS011;27078;46.428;6.256;2023-04-03T09:39:31;2.65;;;2.10;;
41333;SDS011;27078;46.428;6.256;2023-04-03T09:44:44;2.80;;;2.17;;
41333;SDS011;27078;46.428;6.256;2023-04-03T09:47:24;2.42;;;1.98;;
41333;SDS011;27078;46.428;6.256;2023-04-03T09:52:38;3.58;;;2.50;;
41333;SDS011;27078;46.428;6.256;2023-04-03T09:55:08;4.28;;;2.50;;
41333;SDS011;27078;46.428;6.256;2023-04-03T09:57:40;2.70;;;2.20;;
41333;SDS011;27078;46.428;6.256;2023-04-03T10:00:06;3.90;;;2.60;;
41333;SDS011;27078;46.428;6.256;2023-04-03T10:02:44;3.58;;;2.45;;
41333;SDS011;27078;46.428;6.256;2023-04-03T10:08:10;4.05;;;2.72;;
41333;SDS011;27078;46.428;6.256;2023-04-03T10:10:40;5.05;;;2.90;;
41333;SDS011;27078;46.428;6.256;2023-04-03T10:13:10;4.00;;;3.17;;
41333;SDS011;27078;46.428;6.256;2023-04-03T10:15:49;3.90;;;2.30;;
41333;SDS011;27078;46.428;6.256;2023-04-03T10:21:10;3.45;;;2.90;;
41333;SDS011;27078;46.428;6.256;2023-04-03T10:27:01;5.38;;;3.45;;
41333;SDS011;27078;46.428;6.256;2023-04-03T10:38:24;4.13;;;2.83;;
41333;SDS011;27078;46.428;6.256;2023-04-03T10:43:59;3.63;;;2.75;;
41333;SDS011;27078;46.428;6.256;2023-04-03T10:46:38;5.33;;;3.03;;
41333;SDS011;27078;46.428;6.256;2023-04-03T10:49:25;3.22;;;2.55;;
41333;SDS011;27078;46.428;6.256;2023-04-03T10:51:58;3.17;;;2.78;;
41333;SDS011;27078;46.428;6.256;2023-04-03T10:54:50;3.13;;;2.13;;
41333;SDS011;27078;46.428;6.256;2023-04-03T10:57:24;4.57;;;2.53;;
41333;SDS011;27078;46.428;6.256;2023-04-03T10:59:51;3.58;;;2.28;;
41333;SDS011;27078;46.428;6.256;2023-04-03T11:05:16;4.47;;;2.80;;
41333;SDS011;27078;46.428;6.256;2023-04-03T11:07:48;3.40;;;2.40;;
41333;SDS011;27078;46.428;6.256;2023-04-03T11:10:28;3.88;;;2.28;;
41333;SDS011;27078;46.428;6.256;2023-04-03T11:13:01;3.25;;;2.80;;
41333;SDS011;27078;46.428;6.256;2023-04-03T11:15:32;3.92;;;2.80;;
41333;SDS011;27078;46.428;6.256;2023-04-03T11:17:59;4.25;;;2.70;;
41333;SDS011;27078;46.428;6.256;2023-04-03T11:20:31;4.32;;;2.90;;
41333;SDS011;27078;46.428;6.256;2023-04-03T11:23:13;3.20;;;2.60;;
41333;SDS011;27078;46.428;6.256;2023-04-03T11:25:43;3.17;;;2.35;;
41333;SDS011;27078;46.428;6.256;2023-04-03T11:28:14;3.67;;;2.53;;
41333;SDS011;27078;46.428;6.256;2023-04-03T11:33:24;3.88;;;2.13;;
41333;SDS011;27078;46.428;6.256;2023-04-03T11:36:11;4.80;;;2.67;;
41333;SDS011;27078;46.428;6.256;2023-04-03T11:38:45;3.03;;;2.33;;
41333;SDS011;27078;46.428;6.256;2023-04-03T11:41:12;3.38;;;2.50;;
41333;SDS011;27078;46.428;6.256;2023-04-03T11:43:43;3.15;;;2.67;;
41333;SDS011;27078;46.428;6.256;2023-04-03T11:46:22;3.53;;;2.53;;
41333;SDS011;27078;46.428;6.256;2023-04-03T11:48:49;2.95;;;2.63;;
41333;SDS011;27078;46.428;6.256;2023-04-03T11:51:37;5.50;;;2.55;;
41333;SDS011;27078;46.428;6.256;2023-04-03T11:57:14;3.00;;;2.55;;
41333;SDS011;27078;46.428;6.256;2023-04-03T12:00:45;3.90;;;2.78;;
41333;SDS011;27078;46.428;6.256;2023-04-03T12:16:00;5.20;;;3.08;;
41333;SDS011;27078;46.428;6.256;2023-04-03T12:21:16;3.88;;;2.88;;
41333;SDS011;27078;46.428;6.256;2023-04-03T12:24:13;5.63;;;3.20;;
41333;SDS011;27078;46.428;6.256;2023-04-03T12:29:34;4.68;;;2.95;;
41333;SDS011;27078;46.428;6.256;2023-04-03T12:43:00;4.53;;;2.78;;
41333;SDS011;27078;46.428;6.256;2023-04-03T12:45:46;6.10;;;3.08;;
41333;SDS011;27078;46.428;6.256;2023-04-03T12:48:17;4.68;;;3.05;;
41333;SDS011;27078;46.428;6.256;2023-04-03T12:50:47;4.72;;;3.25;;
41333;SDS011;27078;46.428;6.256;2023-04-03T12:53:18;4.25;;;3.20;;
41333;SDS011;27078;46.428;6.256;2023-04-03T12:55:47;5.22;;;2.60;;
41333;SDS011;27078;46.428;6.256;2023-04-03T12:58:24;4.93;;;2.75;;
41333;SDS011;27078;46.428;6.256;2023-04-03T13:01:09;4.28;;;2.88;;
41333;SDS011;27078;46.428;6.256;2023-04-03T13:03:37;7.03;;;2.70;;
41333;SDS011;27078;46.428;6.256;2023-04-03T13:06:05;3.80;;;3.03;;
41333;SDS011;27078;46.428;6.256;2023-04-03T13:08:30;4.20;;;2.90;;
41333;SDS011;27078;46.428;6.256;2023-04-03T13:11:06;5.10;;;2.70;;
41333;SDS011;27078;46.428;6.256;2023-04-03T13:13:36;4.30;;;2.70;;
41333;SDS011;27078;46.428;6.256;2023-04-03T13:16:10;3.05;;;2.40;;
41333;SDS011;27078;46.428;6.256;2023-04-03T13:18:36;6.72;;;2.50;;
41333;SDS011;27078;46.428;6.256;2023-04-03T13:21:25;4.93;;;2.60;;
41333;SDS011;27078;46.428;6.256;2023-04-03T13:23:57;4.57;;;2.50;;
41333;SDS011;27078;46.428;6.256;2023-04-03T13:26:26;5.05;;;2.60;;
41333;SDS011;27078;46.428;6.256;2023-04-03T13:28:55;4.68;;;2.40;;
41333;SDS011;27078;46.428;6.256;2023-04-03T13:31:27;3.60;;;2.70;;
41333;SDS011;27078;46.428;6.256;2023-04-03T13:36:35;3.58;;;2.30;;
41333;SDS011;27078;46.428;6.256;2023-04-03T13:41:39;4.78;;;2.60;;
41333;SDS011;27078;46.428;6.256;2023-04-03T13:46:48;6.25;;;2.60;;
41333;SDS011;27078;46.428;6.256;2023-04-03T13:51:48;4.72;;;2.22;;
41333;SDS011;27078;46.428;6.256;2023-04-03T13:57:10;4.35;;;2.50;;
41333;SDS011;27078;46.428;6.256;2023-04-03T13:59:38;4.32;;;2.30;;
41333;SDS011;27078;46.428;6.256;2023-04-03T14:07:09;4.97;;;2.30;;
41333;SDS011;27078;46.428;6.256;2023-04-03T14:09:39;3.42;;;2.50;;
41333;SDS011;27078;46.428;6.256;2023-04-03T14:12:06;5.03;;;2.58;;
41333;SDS011;27078;46.428;6.256;2023-04-03T14:14:34;4.63;;;2.15;;
41333;SDS011;27078;46.428;6.256;2023-04-03T14:17:02;2.80;;;2.10;;
41333;SDS011;27078;46.428;6.256;2023-04-03T14:19:35;4.13;;;2.17;;
41333;SDS011;27078;46.428;6.256;2023-04-03T14:22:06;3.25;;;2.20;;
41333;SDS011;27078;46.428;6.256;2023-04-03T14:24:44;3.00;;;2.20;;
41333;SDS011;27078;46.428;6.256;2023-04-03T14:27:30;3.25;;;2.40;;
41333;SDS011;27078;46.428;6.256;2023-04-03T14:29:59;3.17;;;2.20;;
41333;SDS011;27078;46.428;6.256;2023-04-03T14:32:28;3.20;;;2.38;;
41333;SDS011;27078;46.428;6.256;2023-04-03T14:34:53;4.45;;;2.50;;
41333;SDS011;27078;46.428;6.256;2023-04-03T14:37:22;3.30;;;2.28;;
41333;SDS011;27078;46.428;6.256;2023-04-03T14:39:50;4.05;;;2.28;;
41333;SDS011;27078;46.428;6.256;2023-04-03T14:42:19;4.28;;;2.33;;
41333;SDS011;27078;46.428;6.256;2023-04-03T14:44:47;2.45;;;1.90;;
41333;SDS011;27078;46.428;6.256;2023-04-03T14:47:14;3.58;;;2.45;;
41333;SDS011;27078;46.428;6.256;2023-04-03T14:49:46;2.80;;;2.08;;
41333;SDS011;27078;46.428;6.256;2023-04-03T14:52:31;2.80;;;2.20;;
41333;SDS011;27078;46.428;6.256;2023-04-03T14:54:59;2.88;;;1.95;;
41333;SDS011;27078;46.428;6.256;2023-04-03T14:57:26;4.00;;;2.20;;
41333;SDS011;27078;46.428;6.256;2023-04-03T14:59:53;3.33;;;2.13;;
41333;SDS011;27078;46.428;6.256;2023-04-03T15:02:28;3.53;;;2.20;;
41333;SDS011;27078;46.428;6.256;2023-04-03T15:04:58;3.13;;;2.20;;
41333;SDS011;27078;46.428;6.256;2023-04-03T15:07:28;3.70;;;1.98;;
41333;SDS011;27078;46.428;6.256;2023-04-03T15:09:55;3.38;;;2.15;;
41333;SDS011;27078;46.428;6.256;2023-04-03T15:12:21;4.40;;;2.10;;
41333;SDS011;27078;46.428;6.256;2023-04-03T15:14:48;3.03;;;2.00;;
41333;SDS011;27078;46.428;6.256;2023-04-03T15:17:14;3.03;;;2.20;;
41333;SDS011;27078;46.428;6.256;2023-04-03T15:19:43;3.40;;;2.30;;
41333;SDS011;27078;46.428;6.256;2023-04-03T15:22:12;4.43;;;2.33;;
41333;SDS011;27078;46.428;6.256;2023-04-03T15:24:40;2.30;;;2.10;;
41333;SDS011;27078;46.428;6.256;2023-04-03T15:27:05;2.63;;;2.08;;
41333;SDS011;27078;46.428;6.256;2023-04-03T15:29:30;3.55;;;2.22;;
41333;SDS011;27078;46.428;6.256;2023-04-03T15:31:56;3.88;;;2.33;;
41333;SDS011;27078;46.428;6.256;2023-04-03T15:34:21;3.38;;;2.30;;
41333;SDS011;27078;46.428;6.256;2023-04-03T15:36:47;2.78;;;2.00;;
41333;SDS011;27078;46.428;6.256;2023-04-03T15:39:12;3.83;;;2.20;;
41333;SDS011;27078;46.428;6.256;2023-04-03T15:41:37;3.53;;;2.05;;
41333;SDS011;27078;46.428;6.256;2023-04-03T15:44:03;2.85;;;2.10;;
41333;SDS011;27078;46.428;6.256;2023-04-03T15:46:28;4.20;;;1.95;;
41333;SDS011;27078;46.428;6.256;2023-04-03T15:48:54;2.90;;;1.92;;
41333;SDS011;27078;46.428;6.256;2023-04-03T15:51:21;4.07;;;1.77;;
41333;SDS011;27078;46.428;6.256;2023-04-03T15:53:46;3.83;;;2.00;;
41333;SDS011;27078;46.428;6.256;2023-04-03T15:56:11;3.63;;;2.10;;
41333;SDS011;27078;46.428;6.256;2023-04-03T15:58:37;6.75;;;2.20;;
41333;SDS011;27078;46.428;6.256;2023-04-03T16:01:02;2.92;;;1.85;;
41333;SDS011;27078;46.428;6.256;2023-04-03T16:03:28;3.83;;;2.10;;
41333;SDS011;27078;46.428;6.256;2023-04-03T16:05:55;4.68;;;2.15;;
41333;SDS011;27078;46.428;6.256;2023-04-03T16:08:20;2.00;;;1.73;;
41333;SDS011;27078;46.428;6.256;2023-04-03T16:10:46;2.83;;;1.88;;
41333;SDS011;27078;46.428;6.256;2023-04-03T16:13:12;2.58;;;1.88;;
41333;SDS011;27078;46.428;6.256;2023-04-03T16:15:43;6.60;;;1.83;;
41333;SDS011;27078;46.428;6.256;2023-04-03T16:18:08;4.13;;;1.70;;
41333;SDS011;27078;46.428;6.256;2023-04-03T16:20:35;2.65;;;1.80;;
41333;SDS011;27078;46.428;6.256;2023-04-03T16:23:01;2.15;;;1.55;;
41333;SDS011;27078;46.428;6.256;2023-04-03T16:25:34;2.35;;;1.70;;
41333;SDS011;27078;46.428;6.256;2023-04-03T16:28:14;2.97;;;1.60;;
41333;SDS011;27078;46.428;6.256;2023-04-03T16:30:41;2.70;;;1.48;;
41333;SDS011;27078;46.428;6.256;2023-04-03T16:33:10;2.78;;;1.80;;
41333;SDS011;27078;46.428;6.256;2023-04-03T16:35:36;2.33;;;1.67;;
41333;SDS011;27078;46.428;6.256;2023-04-03T16:38:02;2.25;;;1.80;;
41333;SDS011;27078;46.428;6.256;2023-04-03T16:40:28;2.10;;;1.70;;
41333;SDS011;27078;46.428;6.256;2023-04-03T16:42:53;3.20;;;1.80;;